Time;durP1;ratioP1;P1;durP2;ratioP2;P2;SDS_P1;SDS_P2;PMS_P1;PMS_P2;Temp;Humidity;BMP_temperature;BMP_pressure;BME280_temperature;BME280_humidity;BME280_pressure;Samples;Min_cycle;Max_cycle;Signal;HPM_P1;HPM_P2
2023/03/11 00:00:16;;;;;;;;;;;;;;;;;;;;;
2023/03/11 00:04:02;;;;;;;;;;;;;;;;;;;;;
2023/03/11 00:28:15;;;;;;;;;;;;;;;;;;;;;
2023/03/11 00:32:13;;;;;;;;;;;;;;;;;;;;;
2023/03/11 05:35:43;;;;;;;2.03;0.50;;;-1.70;99.90;;;;;;6066701;23;20062;-82
2023/03/11 05:38:46;;;;;;;5.38;0.43;;;-1.50;99.90;;;;;;6065270;23;20022;-82
2023/03/11 05:46:05;;;;;;;2.70;0.43;;;-1.80;99.90;;;;;;6034591;23;20019;-82
2023/03/11 05:51:44;;;;;;;2.28;0.47;;;-1.30;99.90;;;;;;6027250;23;20087;-82
2023/03/11 05:54:38;;;;;;;1.48;0.30;;;-1.80;99.90;;;;;;6038740;23;20118;-82
2023/03/11 05:57:04;;;;;;;6.28;0.50;;;-1.20;99.90;;;;;;6037461;23;20022;-82
2023/03/11 05:59:38;;;;;;;9.68;0.30;;;-1.40;99.90;;;;;;6064585;23;20431;-81
2023/03/11 06:02:09;;;;;;;2.55;0.30;;;-1.90;99.90;;;;;;6038025;23;20022;-81
2023/03/11 06:04:35;;;;;;;6.65;0.43;;;-1.50;99.90;;;;;;6063899;23;20019;-81
2023/03/11 06:07:01;;;;;;;4.32;0.40;;;-1.90;99.90;;;;;;6038368;23;20039;-81
2023/03/11 06:09:30;;;;;;;3.63;0.30;;;-1.80;99.90;;;;;;6040205;23;20016;-82
2023/03/11 06:12:08;;;;;;;5.85;0.40;;;-1.90;99.90;;;;;;6038191;23;20024;-82
2023/03/11 06:14:37;;;;;;;2.53;0.35;;;-1.70;99.90;;;;;;6040417;23;20016;-81
2023/03/11 06:17:04;;;;;;;13.70;7.80;;;-1.70;99.90;;;;;;6064510;23;20051;-81
2023/03/11 06:19:33;;;;;;;7.75;2.03;;;-0.60;99.90;;;;;;6038137;23;20022;-82
2023/03/11 06:22:04;;;;;;;2.03;0.98;;;-1.80;99.90;;;;;;6035290;23;20038;-81
2023/03/11 06:24:33;;;;;;;4.63;0.85;;;-1.50;99.90;;;;;;6038509;23;20491;-82
2023/03/11 06:26:59;;;;;;;8.90;1.30;;;-1.80;99.90;;;;;;6038215;23;20095;-81
2023/03/11 06:29:28;;;;;;;3.53;1.23;;;-1.10;99.90;;;;;;6036702;23;20048;-82
2023/03/11 06:32:17;;;;;;;4.68;1.27;;;-0.40;99.90;;;;;;6034908;23;20022;-81
2023/03/11 06:35:07;;;;;;;6.05;1.88;;;0.40;99.90;;;;;;6035114;23;20102;-82
2023/03/11 06:38:06;;;;;;;8.07;1.83;;;1.10;99.90;;;;;;6034332;23;20026;-82
2023/03/11 06:41:17;;;;;;;2.22;0.60;;;2.30;99.90;;;;;;6031173;23;20015;-83
2023/03/11 06:44:19;;;;;;;6.55;1.50;;;2.90;99.90;;;;;;6055507;23;20056;-83
2023/03/11 06:58:59;;;;;;;4.38;1.20;;;6.40;99.90;;;;;;6033702;23;20092;-81
2023/03/11 07:14:09;;;;;;;3.10;0.60;;;5.70;99.90;;;;;;5947939;24;20461;-81
2023/03/11 07:17:37;;;;;;;4.65;0.60;;;6.00;99.90;;;;;;5950337;24;20023;-81
2023/03/11 07:28:29;;;;;;;2.70;0.50;;;6.00;99.90;;;;;;5883770;24;20024;-80
2023/03/11 07:35:14;;;;;;;2.22;0.60;;;5.50;99.90;;;;;;5920599;24;20032;-81
2023/03/11 07:38:49;;;;;;;2.55;0.50;;;4.90;99.90;;;;;;5922196;24;20037;-81
2023/03/11 07:42:22;;;;;;;3.67;1.60;;;4.20;99.90;;;;;;5937568;24;20072;-80
2023/03/11 07:49:09;;;;;;;1.75;0.50;;;3.10;99.90;;;;;;5930551;24;20093;-80
2023/03/11 07:51:59;;;;;;;2.72;0.70;;;2.70;99.90;;;;;;5981170;23;20362;-81
2023/03/11 07:55:14;;;;;;;1.83;0.43;;;2.50;99.90;;;;;;6036088;23;20026;-83
2023/03/11 07:58:36;;;;;;;3.35;0.45;;;2.30;99.90;;;;;;6056920;23;20018;-83
2023/03/11 08:04:54;;;;;;;3.28;1.08;;;2.00;99.90;;;;;;6036412;23;20049;-82
2023/03/11 08:11:03;;;;;;;3.42;0.50;;;1.90;99.90;;;;;;6036890;23;20038;-82
2023/03/11 08:13:32;;;;;;;1.50;0.57;;;2.80;99.90;;;;;;6062946;23;20020;-81
2023/03/11 08:16:17;;;;;;;3.78;0.57;;;1.60;99.90;;;;;;6058423;23;20645;-82
2023/03/11 08:18:46;;;;;;;3.97;0.73;;;0.80;99.90;;;;;;6010316;23;20460;-79
2023/03/11 08:21:14;;;;;;;8.25;0.90;;;1.90;99.90;;;;;;6009324;23;20027;-79
2023/03/11 08:23:42;;;;;;;3.35;0.38;;;1.90;99.90;;;;;;6058968;23;20083;-80
2023/03/11 08:26:10;;;;;;;4.15;0.38;;;1.70;99.90;;;;;;6064012;23;20015;-81
2023/03/11 08:28:36;;;;;;;5.88;0.68;;;1.70;99.90;;;;;;6065938;23;20055;-80
2023/03/11 08:31:02;;;;;;;3.70;0.65;;;1.80;99.90;;;;;;6063484;23;20074;-81
2023/03/11 08:33:27;;;;;;;10.07;1.35;;;2.40;99.90;;;;;;6013937;23;20019;-80
2023/03/11 08:35:53;;;;;;;10.27;1.20;;;2.50;99.90;;;;;;6037898;23;20018;-82
2023/03/11 08:38:19;;;;;;;5.63;0.93;;;2.60;99.90;;;;;;6061679;23;20015;-82
2023/03/11 08:40:45;;;;;;;4.78;1.45;;;2.00;99.90;;;;;;6062406;23;20023;-83
2023/03/11 08:43:14;;;;;;;3.58;0.80;;;2.00;99.90;;;;;;6016681;23;20081;-81
2023/03/11 08:45:41;;;;;;;3.22;1.00;;;2.20;99.90;;;;;;6015361;23;20019;-82
2023/03/11 08:48:09;;;;;;;4.10;1.05;;;2.70;99.90;;;;;;6037384;23;20094;-82
2023/03/11 08:50:35;;;;;;;4.53;0.88;;;2.90;99.90;;;;;;6035320;23;20015;-81
2023/03/11 08:53:02;;;;;;;2.55;0.77;;;2.50;99.90;;;;;;6058719;23;20019;-82
2023/03/11 08:55:28;;;;;;;4.07;0.98;;;2.80;99.90;;;;;;6060110;23;20019;-81
2023/03/11 08:57:54;;;;;;;4.13;0.90;;;2.60;99.90;;;;;;6060976;23;20031;-82
2023/03/11 09:00:21;;;;;;;6.03;0.63;;;2.70;99.90;;;;;;6061478;23;20094;-82
2023/03/11 09:02:46;;;;;;;5.97;1.30;;;2.80;99.90;;;;;;6064360;23;20019;-81
2023/03/11 09:05:12;;;;;;;2.47;0.70;;;3.00;99.90;;;;;;6062247;23;20030;-82
2023/03/11 09:07:38;;;;;;;4.35;1.60;;;4.50;99.90;;;;;;6039307;23;20050;-81
2023/03/11 09:10:05;;;;;;;8.57;1.63;;;4.40;99.90;;;;;;6062204;23;20104;-85
2023/03/11 09:12:31;;;;;;;8.10;2.20;;;3.50;99.90;;;;;;6063267;23;20020;-81
2023/03/11 09:14:57;;;;;;;4.22;0.95;;;3.80;99.90;;;;;;6015544;23;20058;-81
2023/03/11 09:17:23;;;;;;;4.30;1.27;;;3.90;99.90;;;;;;6064952;23;20680;-82
2023/03/11 09:19:48;;;;;;;3.22;0.70;;;4.10;99.90;;;;;;6017196;23;20023;-82
2023/03/11 09:22:14;;;;;;;2.88;0.73;;;4.30;99.90;;;;;;6039178;23;20030;-82
2023/03/11 09:24:40;;;;;;;5.75;0.80;;;4.80;99.90;;;;;;6041666;23;20030;-82
2023/03/11 09:27:06;;;;;;;3.15;1.00;;;4.60;99.90;;;;;;6037450;23;20026;-82
2023/03/11 09:29:31;;;;;;;5.55;1.45;;;4.80;99.90;;;;;;6038801;23;20059;-82
2023/03/11 09:31:58;;;;;;;4.13;0.75;;;4.80;99.90;;;;;;6065660;23;20022;-82
2023/03/11 09:34:23;;;;;;;6.47;0.90;;;5.10;99.90;;;;;;6017614;23;20011;-83
2023/03/11 09:36:49;;;;;;;2.90;0.60;;;5.90;99.90;;;;;;6036895;23;20050;-82
2023/03/11 09:39:15;;;;;;;4.22;0.90;;;6.10;99.90;;;;;;6036189;23;20094;-80
2023/03/11 09:41:50;;;;;;;4.32;0.90;;;5.20;99.90;;;;;;6058965;23;20094;-79
2023/03/11 09:44:49;;;;;;;4.85;0.50;;;5.30;99.90;;;;;;6036530;23;20030;-80
2023/03/11 09:47:36;;;;;;;2.17;0.82;;;5.30;99.90;;;;;;6037096;23;20352;-81
2023/03/11 09:50:15;;;;;;;7.82;0.98;;;5.30;99.90;;;;;;6060528;23;20464;-79
2023/03/11 09:52:57;;;;;;;5.47;0.95;;;5.40;99.90;;;;;;6056602;23;20019;-78
2023/03/11 09:55:38;;;;;;;5.43;0.88;;;5.30;99.90;;;;;;6034820;23;20019;-80
2023/03/11 09:58:16;;;;;;;2.53;0.65;;;5.40;99.90;;;;;;6036769;23;20068;-80
2023/03/11 10:00:43;;;;;;;3.10;0.68;;;5.60;99.90;;;;;;6037577;23;20034;-81
2023/03/11 10:03:25;;;;;;;3.85;0.50;;;5.60;99.90;;;;;;6036880;23;20091;-81
2023/03/11 10:05:57;;;;;;;3.08;0.55;;;5.60;99.90;;;;;;6061113;23;20015;-83
2023/03/11 10:08:38;;;;;;;6.78;0.93;;;5.90;99.90;;;;;;6058634;23;20023;-80
2023/03/11 10:11:23;;;;;;;3.70;1.05;;;6.00;99.90;;;;;;6011665;23;20015;-82
2023/03/11 10:14:19;;;;;;;4.40;0.75;;;6.00;99.90;;;;;;6035151;23;20338;-80
2023/03/11 10:16:55;;;;;;;4.03;0.90;;;6.10;99.90;;;;;;6031386;23;20460;-80
2023/03/11 10:19:43;;;;;;;5.35;0.95;;;6.80;99.90;;;;;;6057450;23;20074;-83
2023/03/11 10:22:52;;;;;;;12.35;1.33;;;6.50;99.90;;;;;;6051794;23;20334;-81
2023/03/11 10:25:29;;;;;;;6.50;0.85;;;6.30;99.90;;;;;;6034154;23;20019;-80
2023/03/11 10:28:04;;;;;;;6.90;0.73;;;6.40;99.90;;;;;;6059576;23;20030;-80
2023/03/11 10:30:54;;;;;;;2.85;0.65;;;6.60;99.90;;;;;;6059337;23;20357;-80
2023/03/11 10:33:29;;;;;;;6.22;0.65;;;6.70;99.90;;;;;;6058106;23;20070;-80
2023/03/11 10:36:02;;;;;;;5.90;2.10;;;7.60;99.90;;;;;;6034476;23;20534;-80
2023/03/11 10:38:34;;;;;;;4.35;0.68;;;7.40;99.90;;;;;;6033775;23;20093;-80
2023/03/11 10:41:05;;;;;;;4.45;0.75;;;7.00;99.90;;;;;;6056354;23;20016;-80
2023/03/11 10:43:37;;;;;;;3.33;0.80;;;7.10;99.90;;;;;;6053120;23;20019;-79
2023/03/11 10:46:09;;;;;;;10.10;0.82;;;7.90;99.90;;;;;;6053832;23;20661;-79
2023/03/11 10:48:41;;;;;;;7.03;0.70;;;7.60;99.90;;;;;;6057746;23;20079;-81
2023/03/11 10:51:21;;;;;;;4.93;0.68;;;7.60;99.90;;;;;;6056817;23;20030;-82
2023/03/11 10:53:50;;;;;;;2.75;0.70;;;7.60;99.90;;;;;;6058721;23;20125;-80
2023/03/11 10:56:35;;;;;;;4.95;1.10;;;7.70;99.90;;;;;;6032385;23;20344;-81
2023/03/11 10:59:03;;;;;;;5.18;0.82;;;7.60;99.90;;;;;;6033980;23;20087;-81
2023/03/11 11:01:29;;;;;;;4.47;0.55;;;7.80;99.90;;;;;;6035946;23;20023;-81
2023/03/11 11:03:59;;;;;;;4.72;0.95;;;7.50;99.90;;;;;;6034881;23;20019;-81
2023/03/11 11:06:43;;;;;;;6.97;1.17;;;8.10;99.90;;;;;;6060176;23;20054;-81
2023/03/11 11:09:23;;;;;;;8.10;0.75;;;7.40;99.90;;;;;;6037475;23;20023;-81
2023/03/11 11:12:10;;;;;;;5.90;1.15;;;8.60;99.90;;;;;;6061016;23;20174;-82
2023/03/11 11:14:47;;;;;;;5.43;0.60;;;7.80;99.90;;;;;;6031275;23;20816;-81
2023/03/11 11:17:31;;;;;;;6.65;0.63;;;7.90;99.90;;;;;;6011105;23;20034;-81
2023/03/11 11:19:59;;;;;;;2.72;0.50;;;8.50;99.90;;;;;;6062013;23;20034;-80
2023/03/11 11:22:25;;;;;;;4.38;0.65;;;8.90;99.90;;;;;;6061396;23;20119;-80
2023/03/11 11:24:54;;;;;;;3.45;0.43;;;8.40;99.90;;;;;;6034840;23;20562;-81
2023/03/11 11:27:22;;;;;;;2.90;0.57;;;8.20;99.90;;;;;;6059889;23;20075;-81
2023/03/11 11:30:03;;;;;;;4.22;0.40;;;8.30;99.90;;;;;;6058509;23;20027;-80
2023/03/11 11:32:30;;;;;;;4.85;0.50;;;8.40;99.90;;;;;;6034115;23;20683;-80
2023/03/11 11:35:04;;;;;;;4.90;0.80;;;8.40;99.90;;;;;;6034017;23;20081;-79
2023/03/11 11:37:32;;;;;;;12.30;1.02;;;7.70;99.90;;;;;;6034187;23;20444;-79
2023/03/11 11:40:13;;;;;;;3.55;0.50;;;8.30;99.90;;;;;;6057284;23;20412;-78
2023/03/11 11:43:03;;;;;;;4.95;0.40;;;8.50;99.90;;;;;;6032265;23;20125;-81
2023/03/11 11:49:18;;;;;;;4.10;0.65;;;8.60;99.90;;;;;;6056172;23;20123;-82
2023/03/11 11:52:01;;;;;;;4.13;0.60;;;8.40;99.90;;;;;;6058161;23;20039;-81
2023/03/11 11:58:11;;;;;;;3.58;0.70;;;8.60;99.90;;;;;;6003336;23;20025;-82
2023/03/11 12:24:15;;;;;;;6.97;0.43;;;9.40;99.90;;;;;;5900809;24;20105;-85
2023/03/11 12:27:04;;;;;;;4.00;0.40;;;8.90;99.90;;;;;;5880892;23;20023;-82
2023/03/11 12:29:33;;;;;;;5.03;0.30;;;9.00;99.90;;;;;;6035656;23;20023;-82
2023/03/11 12:32:03;;;;;;;3.05;0.28;;;9.00;99.90;;;;;;6057653;23;20016;-82
2023/03/11 12:34:34;;;;;;;5.97;0.75;;;9.10;99.90;;;;;;6058599;23;20019;-83
2023/03/11 12:37:13;;;;;;;4.57;0.57;;;9.60;99.90;;;;;;6009855;23;20042;-83
2023/03/11 12:39:39;;;;;;;2.55;0.40;;;9.40;99.90;;;;;;6011085;23;20039;-83
2023/03/11 12:42:16;;;;;;;2.45;0.20;;;9.40;99.90;;;;;;6060395;23;20083;-81
2023/03/11 12:44:44;;;;;;;4.20;0.47;;;9.10;99.90;;;;;;6059410;23;20030;-83
2023/03/11 12:47:10;;;;;;;3.35;0.47;;;9.20;99.90;;;;;;6029582;23;20046;-83
2023/03/11 12:49:44;;;;;;;5.80;0.47;;;9.30;99.90;;;;;;6056283;23;20027;-82
2023/03/11 12:52:10;;;;;;;5.32;0.82;;;8.90;99.90;;;;;;6058436;23;20018;-82
2023/03/11 12:54:38;;;;;;;1.48;0.20;;;8.80;99.90;;;;;;6033259;23;20019;-82
2023/03/11 12:57:16;;;;;;;2.05;0.20;;;8.90;99.90;;;;;;6031881;23;20016;-83
2023/03/11 13:00:00;;;;;;;5.38;0.98;;;8.80;99.90;;;;;;6033175;23;20034;-82
2023/03/11 13:02:26;;;;;;;3.22;0.20;;;9.00;99.90;;;;;;6032221;23;20023;-82
2023/03/11 13:05:15;;;;;;;3.33;0.47;;;9.20;99.90;;;;;;6028850;23;20034;-82
2023/03/11 13:07:48;;;;;;;4.05;0.32;;;9.00;99.90;;;;;;6054248;23;20031;-81
2023/03/11 13:10:15;;;;;;;5.07;0.40;;;9.30;99.90;;;;;;6055332;23;20062;-81
2023/03/11 13:12:47;;;;;;;3.85;0.35;;;9.40;99.90;;;;;;6032056;23;20083;-81
2023/03/11 13:15:18;;;;;;;2.70;0.30;;;9.70;99.90;;;;;;6009857;23;20019;-81
2023/03/11 13:18:13;;;;;;;2.25;0.25;;;10.10;99.90;;;;;;6032269;23;20019;-81
2023/03/11 13:20:42;;;;;;;3.58;0.73;;;9.20;99.90;;;;;;6033661;23;20110;-81
2023/03/11 13:23:13;;;;;;;5.05;0.40;;;9.20;99.90;;;;;;6031407;23;20397;-82
2023/03/11 13:26:00;;;;;;;2.92;0.38;;;9.50;99.90;;;;;;6060646;23;20030;-82
2023/03/11 13:29:04;;;;;;;3.67;0.45;;;9.20;99.90;;;;;;6037377;23;20015;-80
2023/03/11 13:32:11;;;;;;;3.53;0.40;;;9.20;99.90;;;;;;6035647;23;20067;-82
2023/03/11 13:34:43;;;;;;;10.40;1.48;;;9.30;99.90;;;;;;6007866;23;20037;-81
2023/03/11 13:37:35;;;;;;;6.55;0.60;;;9.20;99.90;;;;;;6035033;23;20055;-82
2023/03/11 13:40:22;;;;;;;7.47;0.50;;;9.30;99.90;;;;;;6026309;23;20791;-82
2023/03/11 13:42:56;;;;;;;2.08;0.28;;;9.20;99.90;;;;;;6056853;23;20027;-82
2023/03/11 13:45:33;;;;;;;3.60;0.40;;;9.40;99.90;;;;;;6034782;23;20027;-81
2023/03/11 13:48:31;;;;;;;2.55;0.40;;;9.00;99.90;;;;;;6011340;23;20027;-82
2023/03/11 13:51:12;;;;;;;0.98;0.20;;;9.10;99.90;;;;;;6003248;23;20034;-82
2023/03/11 13:53:43;;;;;;;4.10;0.38;;;9.40;99.90;;;;;;6057011;23;20023;-83
2023/03/11 13:56:48;;;;;;;2.47;0.28;;;9.20;99.90;;;;;;6032192;23;20030;-81
2023/03/11 13:59:20;;;;;;;5.35;0.82;;;9.20;99.90;;;;;;6020081;23;20098;-80
2023/03/11 14:01:51;;;;;;;4.65;0.40;;;9.30;99.90;;;;;;6054246;23;20467;-81
2023/03/11 14:04:29;;;;;;;4.82;0.40;;;9.20;99.90;;;;;;6055497;23;20034;-81
2023/03/11 14:06:54;;;;;;;5.60;0.47;;;9.90;99.90;;;;;;6030245;23;20098;-80
2023/03/11 14:09:24;;;;;;;2.50;0.45;;;9.20;99.90;;;;;;6032498;23;20047;-81
2023/03/11 14:12:01;;;;;;;4.63;0.60;;;9.60;99.90;;;;;;6058679;23;20018;-80
2023/03/11 14:14:54;;;;;;;1.30;0.30;;;9.10;99.90;;;;;;6058650;23;20011;-80
2023/03/11 14:17:20;;;;;;;2.88;0.40;;;9.20;99.90;;;;;;6058658;23;20082;-81
2023/03/11 14:20:10;;;;;;;2.53;0.22;;;9.50;99.90;;;;;;6055679;23;20055;-80
2023/03/11 14:22:37;;;;;;;3.90;0.60;;;9.20;99.90;;;;;;6051150;23;20020;-78
2023/03/11 14:25:09;;;;;;;1.80;0.30;;;9.20;99.90;;;;;;6028656;23;20023;-80
2023/03/11 14:27:37;;;;;;;2.78;0.25;;;8.90;99.90;;;;;;6006683;23;20027;-82
2023/03/11 14:30:05;;;;;;;2.92;0.40;;;8.90;99.90;;;;;;6050742;23;20069;-81
2023/03/11 14:32:33;;;;;;;3.70;0.60;;;8.80;99.90;;;;;;6023488;23;20896;-81
2023/03/11 14:34:59;;;;;;;4.55;0.20;;;8.70;99.90;;;;;;6046733;23;20015;-81
2023/03/11 14:37:29;;;;;;;4.22;0.30;;;8.70;99.90;;;;;;6050161;23;20294;-81
2023/03/11 14:39:59;;;;;;;3.17;0.40;;;8.50;99.90;;;;;;6047741;23;20252;-82
2023/03/11 14:42:35;;;;;;;4.50;0.32;;;8.10;99.90;;;;;;6022935;23;20019;-82
2023/03/11 14:45:04;;;;;;;2.35;0.35;;;7.90;99.90;;;;;;6047538;23;20090;-80
2023/03/11 14:47:43;;;;;;;4.47;0.40;;;7.90;99.90;;;;;;6024646;23;20022;-81
2023/03/11 14:50:18;;;;;;;5.20;0.40;;;8.00;99.90;;;;;;6025243;23;20094;-81
2023/03/11 14:53:08;;;;;;;3.97;0.30;;;8.20;99.90;;;;;;6027859;23;20020;-81
2023/03/11 14:55:39;;;;;;;1.38;0.20;;;8.00;99.90;;;;;;6049724;23;20035;-81
2023/03/11 14:58:16;;;;;;;4.32;0.50;;;8.00;99.90;;;;;;6047899;23;20075;-81
2023/03/11 15:00:54;;;;;;;2.03;0.40;;;8.00;99.90;;;;;;6048431;23;20023;-80
2023/03/11 15:03:24;;;;;;;2.50;0.32;;;8.40;99.90;;;;;;6052528;23;20019;-79
2023/03/11 15:05:55;;;;;;;2.00;0.40;;;8.20;99.90;;;;;;6032609;23;20019;-81
2023/03/11 15:08:23;;;;;;;4.18;0.22;;;8.50;99.90;;;;;;6033047;23;20019;-82
2023/03/11 15:11:03;;;;;;;4.63;0.35;;;8.00;99.90;;;;;;6056964;23;20019;-81
2023/03/11 15:13:29;;;;;;;2.65;0.70;;;7.70;99.90;;;;;;6032587;23;20055;-82
2023/03/11 15:16:23;;;;;;;1.83;0.30;;;8.00;99.90;;;;;;6031546;23;20015;-81
2023/03/11 15:18:49;;;;;;;3.60;0.20;;;8.00;99.90;;;;;;6034693;23;20051;-85
2023/03/11 15:21:25;;;;;;;2.70;0.63;;;7.20;99.90;;;;;;5986934;23;20020;-85
2023/03/11 15:24:01;;;;;;;5.15;0.45;;;7.20;99.90;;;;;;6058121;23;20615;-81
2023/03/11 15:26:29;;;;;;;3.28;0.40;;;7.10;99.90;;;;;;6033645;23;20019;-82
2023/03/11 15:29:14;;;;;;;4.32;0.68;;;6.90;99.90;;;;;;6035075;23;20050;-85
2023/03/11 15:31:57;;;;;;;3.58;0.40;;;6.00;99.90;;;;;;6056048;23;20047;-83
2023/03/11 15:45:15;;;;;;;4.78;0.40;;;7.20;99.90;;;;;;6072048;23;20033;-82
2023/03/11 15:47:42;;;;;;;;;;;6.40;99.90;;;;;;6041866;23;20089;-80
2023/03/11 15:50:19;;;;;;;;;;;6.50;99.90;;;;;;6043237;23;20424;-79
2023/03/11 15:52:50;;;;;;;3.40;0.88;;;6.20;99.90;;;;;;6040294;23;19924;-80
2023/03/11 15:55:18;;;;;;;4.82;1.08;;;6.40;99.90;;;;;;6042857;23;20023;-80
2023/03/11 15:57:50;;;;;;;4.50;0.63;;;6.30;99.90;;;;;;6064470;23;20018;-84
2023/03/11 16:00:54;;;;;;;2.25;0.20;;;5.70;99.90;;;;;;6067531;23;20019;-81
2023/03/11 16:03:22;;;;;;;3.55;0.22;;;5.60;99.90;;;;;;6039645;23;20010;-81
2023/03/11 16:05:50;;;;;;;2.20;0.15;;;5.60;99.90;;;;;;6040677;23;20049;-80
2023/03/11 16:08:18;;;;;;;0.57;0.20;;;5.20;99.90;;;;;;6040583;23;20086;-84
2023/03/11 16:10:45;;;;;;;1.25;0.15;;;5.20;99.90;;;;;;6040897;23;20054;-81
2023/03/11 16:13:14;;;;;;;2.95;0.43;;;5.10;99.90;;;;;;6088560;23;20015;-81
2023/03/11 16:15:46;;;;;;;0.80;0.20;;;5.60;99.90;;;;;;6042040;23;20078;-83
2023/03/11 16:18:16;;;;;;;3.80;0.20;;;5.20;99.90;;;;;;6088453;23;20015;-80
2023/03/11 16:20:49;;;;;;;1.92;0.17;;;5.60;99.90;;;;;;6041268;23;20018;-81
2023/03/11 16:23:34;;;;;;;3.22;0.20;;;5.50;99.90;;;;;;6039880;23;20014;-81
2023/03/11 16:26:04;;;;;;;2.35;0.30;;;5.10;99.90;;;;;;6041881;23;20022;-80
2023/03/11 16:28:32;;;;;;;1.38;0.13;;;5.50;99.90;;;;;;6041284;23;20076;-81
2023/03/11 16:31:00;;;;;;;1.45;0.10;;;5.40;99.90;;;;;;6060801;23;20352;-80
2023/03/11 16:33:35;;;;;;;2.08;0.10;;;5.10;99.90;;;;;;6036459;23;20094;-81
2023/03/11 16:36:18;;;;;;;4.10;0.32;;;4.60;99.90;;;;;;6066824;23;20029;-82
2023/03/11 16:42:30;;;;;;;1.13;0.10;;;4.80;99.90;;;;;;6053704;23;20074;-81
2023/03/11 16:45:04;;;;;;;2.38;0.43;;;4.60;99.90;;;;;;6040253;23;20030;-82
2023/03/11 16:47:40;;;;;;;3.08;0.20;;;4.60;99.90;;;;;;6040412;23;20030;-82
2023/03/11 16:50:19;;;;;;;2.20;0.22;;;4.70;99.90;;;;;;6088352;23;20125;-83
2023/03/11 16:53:05;;;;;;;4.28;0.20;;;4.80;99.90;;;;;;6062393;23;20020;-82
2023/03/11 16:55:35;;;;;;;4.03;0.88;;;4.60;99.90;;;;;;6037587;23;20029;-82
2023/03/11 16:58:47;;;;;;;1.67;0.20;;;4.60;99.90;;;;;;6061907;23;20030;-80
2023/03/11 17:05:20;;;;;;;1.27;0.43;;;4.50;99.90;;;;;;6079123;23;20018;-81
2023/03/11 17:08:12;;;;;;;1.77;0.20;;;4.10;99.90;;;;;;6100954;23;20018;-81
2023/03/11 17:10:58;;;;;;;5.03;0.55;;;4.50;99.90;;;;;;6092849;23;20173;-80
2023/03/11 17:13:24;;;;;;;1.65;0.28;;;5.00;99.90;;;;;;6044864;23;20113;-79
2023/03/11 17:15:58;;;;;;;2.20;0.30;;;4.50;99.90;;;;;;6043195;23;20105;-80
2023/03/11 17:18:25;;;;;;;2.30;0.40;;;4.70;99.90;;;;;;6043603;23;20026;-80
2023/03/11 17:20:51;;;;;;;2.13;0.30;;;4.50;99.90;;;;;;6043535;23;20117;-80
2023/03/11 17:23:16;;;;;;;5.65;0.55;;;4.70;99.90;;;;;;6065137;23;20601;-80
2023/03/11 17:25:47;;;;;;;1.05;0.20;;;4.30;99.90;;;;;;6044741;23;20090;-81
2023/03/11 17:28:13;;;;;;;4.45;0.43;;;4.30;99.90;;;;;;6042129;23;20391;-81
2023/03/11 17:31:06;;;;;;;;;;;;;;;;;;;;;
2023/03/11 17:34:20;;;;;;;2.55;0.32;;;4.10;99.90;;;;;;6068844;23;20322;-82
2023/03/11 17:37:05;;;;;;;;;;;;;;;;;;;;;
2023/03/11 17:39:54;;;;;;;3.28;0.30;;;4.10;99.90;;;;;;6071902;23;20022;-81
2023/03/11 17:42:47;;;;;;;7.13;1.25;;;3.50;99.90;;;;;;6068253;23;20136;-81
2023/03/11 17:45:30;;;;;;;1.55;0.25;;;4.20;99.90;;;;;;6090768;23;20029;-81
2023/03/11 17:49:13;;;;;;;;;;;;;;;;;;;;;
2023/03/11 18:00:17;;;;;;;;;;;;;;;;;;;;;
2023/03/11 18:03:06;;;;;;;0.77;0.17;;;3.70;99.90;;;;;;5849520;24;20075;-80
2023/03/11 18:05:32;;;;;;;4.28;0.38;;;4.30;99.90;;;;;;5877504;24;20020;-80
2023/03/11 18:07:58;;;;;;;2.35;0.20;;;3.60;99.90;;;;;;6012779;23;20029;-79
2023/03/11 18:10:28;;;;;;;3.90;0.30;;;3.40;99.90;;;;;;6047135;23;20045;-81
2023/03/11 18:13:02;;;;;;;1.90;0.30;;;3.90;99.90;;;;;;6051698;23;20019;-82
2023/03/11 18:15:57;;;;;;;1.38;0.32;;;3.30;99.90;;;;;;6053147;23;20105;-82
2023/03/11 18:18:24;;;;;;;3.42;0.60;;;3.90;99.90;;;;;;6047458;23;20121;-81
2023/03/11 18:20:50;;;;;;;5.28;0.45;;;3.50;99.90;;;;;;6048067;23;20426;-82
2023/03/11 18:23:32;;;;;;;4.00;0.30;;;3.00;99.90;;;;;;6048586;23;20018;-82
2023/03/11 18:26:20;;;;;;;3.20;0.30;;;3.50;99.90;;;;;;6047847;23;20345;-82
2023/03/11 18:28:48;;;;;;;3.92;0.30;;;3.10;99.90;;;;;;6042061;23;20078;-81
2023/03/11 18:31:19;;;;;;;0.73;0.20;;;3.00;99.90;;;;;;6073430;23;20018;-81
2023/03/11 18:33:50;;;;;;;3.83;0.30;;;3.00;99.90;;;;;;6050383;23;20048;-80
2023/03/11 18:36:18;;;;;;;2.97;0.63;;;3.90;99.90;;;;;;6049276;23;20042;-80
2023/03/11 18:38:46;;;;;;;1.75;0.28;;;2.70;99.90;;;;;;6046572;23;20034;-80
2023/03/11 18:41:12;;;;;;;3.63;0.40;;;2.80;99.90;;;;;;6048999;23;20106;-80
2023/03/11 18:43:38;;;;;;;2.83;0.38;;;2.60;99.90;;;;;;6045552;23;20522;-80
2023/03/11 18:46:10;;;;;;;3.25;0.30;;;3.50;99.90;;;;;;6049767;23;20010;-81
2023/03/11 18:48:38;;;;;;;1.75;0.30;;;2.50;99.90;;;;;;6046608;23;20051;-81
2023/03/11 18:51:06;;;;;;;1.83;0.30;;;3.30;99.90;;;;;;6045220;23;20029;-81
2023/03/11 18:53:31;;;;;;;2.80;0.88;;;2.60;99.90;;;;;;6043344;23;20165;-80
2023/03/11 18:56:09;;;;;;;3.35;0.50;;;2.40;99.90;;;;;;6042487;23;20049;-81
2023/03/11 18:58:35;;;;;;;1.92;0.30;;;2.40;99.90;;;;;;6046199;23;20019;-81
2023/03/11 19:01:14;;;;;;;4.68;0.40;;;2.60;99.90;;;;;;6046927;23;20046;-81
2023/03/11 19:04:05;;;;;;;2.10;0.28;;;2.30;99.90;;;;;;6045130;23;20054;-81
2023/03/11 19:06:31;;;;;;;1.80;0.30;;;2.80;99.90;;;;;;6026768;23;20022;-81
2023/03/11 19:08:57;;;;;;;2.17;0.80;;;2.20;99.90;;;;;;6045217;23;20297;-81
2023/03/11 19:11:23;;;;;;;3.38;0.40;;;2.30;99.90;;;;;;6044658;23;20368;-82
2023/03/11 19:13:50;;;;;;;2.83;0.35;;;2.60;99.90;;;;;;6046247;23;20464;-82
2023/03/11 19:16:19;;;;;;;4.65;0.50;;;2.60;99.90;;;;;;6043691;23;20014;-81
2023/03/11 19:18:45;;;;;;;2.45;0.32;;;2.70;99.90;;;;;;6042435;23;20046;-80
2023/03/11 19:21:12;;;;;;;3.67;0.52;;;3.10;99.90;;;;;;6042901;23;20050;-80
2023/03/11 19:23:45;;;;;;;1.80;0.57;;;2.40;99.90;;;;;;6044987;23;20018;-80
2023/03/11 19:26:14;;;;;;;3.35;0.60;;;3.20;99.90;;;;;;6051916;23;20085;-81
2023/03/11 19:28:40;;;;;;;3.95;0.70;;;2.40;99.90;;;;;;6042239;23;20018;-81
2023/03/11 19:31:09;;;;;;;2.55;0.60;;;2.10;99.90;;;;;;6044281;23;20026;-80
2023/03/11 19:33:41;;;;;;;1.40;0.52;;;2.40;99.90;;;;;;6043660;23;20018;-80
2023/03/11 19:36:12;;;;;;;5.97;1.17;;;2.30;99.90;;;;;;6047314;23;20025;-81
2023/03/11 19:38:47;;;;;;;3.50;0.90;;;2.00;99.90;;;;;;6041969;23;20080;-81
2023/03/11 19:41:17;;;;;;;3.53;0.53;;;2.00;99.90;;;;;;6039279;23;20033;-79
2023/03/11 19:43:43;;;;;;;8.15;1.08;;;1.90;99.90;;;;;;6039505;23;20045;-79
2023/03/11 19:46:11;;;;;;;3.92;0.63;;;2.70;99.90;;;;;;6063313;23;20014;-80
2023/03/11 19:48:37;;;;;;;1.35;0.50;;;1.90;99.90;;;;;;6041191;23;20029;-78
2023/03/11 19:51:04;;;;;;;2.65;0.75;;;1.70;99.90;;;;;;6064430;23;20022;-80
2023/03/11 19:53:31;;;;;;;3.50;0.75;;;1.80;99.90;;;;;;6037901;23;20050;-79
2023/03/11 19:55:57;;;;;;;3.45;0.70;;;1.70;99.90;;;;;;6041324;23;20042;-79
2023/03/11 19:58:24;;;;;;;2.22;0.60;;;1.60;99.90;;;;;;6041333;23;20435;-79
2023/03/11 20:00:50;;;;;;;6.47;1.05;;;1.80;99.90;;;;;;6039117;23;20050;-79
2023/03/11 20:03:16;;;;;;;3.85;1.10;;;1.60;99.90;;;;;;6038237;23;20018;-79
2023/03/11 20:05:45;;;;;;;4.65;1.13;;;1.60;99.90;;;;;;6040953;23;20025;-80
2023/03/11 20:08:12;;;;;;;3.20;0.80;;;2.10;99.90;;;;;;6041018;23;20050;-78
2023/03/11 20:10:40;;;;;;;5.60;1.15;;;1.50;99.90;;;;;;6066578;23;20010;-80
2023/03/11 20:13:08;;;;;;;2.45;0.82;;;1.60;99.90;;;;;;6042478;23;20019;-78
2023/03/11 20:15:34;;;;;;;2.80;0.85;;;1.60;99.90;;;;;;6070244;23;20022;-78
2023/03/11 20:18:04;;;;;;;3.45;0.85;;;1.90;99.90;;;;;;6037266;23;20317;-79
2023/03/11 20:20:30;;;;;;;3.28;0.55;;;1.60;99.90;;;;;;6039411;23;20018;-79
2023/03/11 20:23:00;;;;;;;2.85;0.50;;;2.20;99.90;;;;;;6040371;23;20050;-80
2023/03/11 20:25:28;;;;;;;3.35;0.70;;;1.50;99.90;;;;;;6040876;23;20097;-79
2023/03/11 20:27:54;;;;;;;5.70;0.80;;;1.30;99.90;;;;;;6041961;23;20073;-80
2023/03/11 20:30:22;;;;;;;5.78;1.10;;;2.30;99.90;;;;;;6042463;23;20332;-80
2023/03/11 20:32:48;;;;;;;3.28;1.27;;;1.70;99.90;;;;;;6041533;23;20022;-79
2023/03/11 20:35:14;;;;;;;2.17;0.60;;;1.30;99.90;;;;;;6067084;23;20033;-79
2023/03/11 20:37:43;;;;;;;3.85;1.60;;;1.30;99.90;;;;;;6044345;23;20048;-79
2023/03/11 20:40:14;;;;;;;1.80;0.88;;;1.80;99.90;;;;;;6040105;23;20463;-79
2023/03/11 20:42:41;;;;;;;3.03;0.70;;;1.20;99.90;;;;;;6042690;23;20015;-78
2023/03/11 20:45:11;;;;;;;4.85;0.70;;;1.00;99.90;;;;;;6038988;23;20053;-78
2023/03/11 20:47:37;;;;;;;2.55;0.70;;;0.50;99.90;;;;;;6041142;23;20109;-78
2023/03/11 20:50:03;;;;;;;2.10;0.80;;;1.10;99.90;;;;;;6065032;23;20391;-79
2023/03/11 20:52:34;;;;;;;14.30;1.60;;;1.10;99.90;;;;;;6041811;23;20022;-79
2023/03/11 20:55:00;;;;;;;4.30;0.70;;;1.00;99.90;;;;;;6065144;23;20387;-79
2023/03/11 20:57:26;;;;;;;4.70;1.20;;;1.60;99.90;;;;;;6040707;23;20321;-79
2023/03/11 20:59:52;;;;;;;3.00;1.23;;;1.00;99.90;;;;;;6042555;23;20077;-79
2023/03/11 21:02:18;;;;;;;6.72;1.40;;;1.00;99.90;;;;;;6042321;23;20029;-79
2023/03/11 21:04:50;;;;;;;4.68;0.85;;;1.60;99.90;;;;;;6041764;23;20022;-79